Time;durP1;ratioP1;P1;durP2;ratioP2;P2;SDS_P1;SDS_P2;PMS_P1;PMS_P2;Temp;Humidity;BMP_temperature;BMP_pressure;BME280_temperature;BME280_humidity;BME280_pressure;Samples;Min_cycle;Max_cycle;Signal;HPM_P1;HPM_P2
2022/06/08 00:00:57;;;;;;;8.05;4.22;;;;;;;25.27;59.78;100465.13;5055464;28;20052;-76
2022/06/08 00:03:57;;;;;;;5.55;3.95;;;;;;;25.26;59.78;100461.59;5055669;28;20045;-75
2022/06/08 00:06:25;;;;;;;5.85;3.42;;;;;;;25.30;59.76;100467.50;5054655;28;20049;-76
2022/06/08 00:08:53;;;;;;;7.28;4.30;;;;;;;25.29;59.58;100463.09;5054759;28;20049;-76
2022/06/08 00:11:20;;;;;;;7.53;4.28;;;;;;;25.29;59.52;100465.81;5055698;28;20048;-76
2022/06/08 00:13:48;;;;;;;9.07;4.00;;;;;;;25.30;59.77;100462.91;5055462;28;20049;-76
2022/06/08 00:16:17;;;;;;;7.20;4.35;;;;;;;25.30;59.52;100456.66;5054607;28;20084;-76
2022/06/08 00:18:45;;;;;;;5.40;3.80;;;;;;;25.31;59.47;100458.34;5055373;28;20051;-76
2022/06/08 00:21:13;;;;;;;7.30;3.95;;;;;;;25.32;59.43;100454.59;5054586;28;20045;-76
2022/06/08 00:23:42;;;;;;;7.03;4.18;;;;;;;25.31;59.44;100442.06;5054599;28;20045;-76
2022/06/08 00:26:10;;;;;;;6.15;4.10;;;;;;;25.32;59.39;100441.91;5054497;28;20377;-75
2022/06/08 00:28:37;;;;;;;7.13;3.85;;;;;;;25.32;59.51;100446.47;5053553;28;20056;-75
2022/06/08 00:31:05;;;;;;;5.68;4.28;;;;;;;25.32;59.35;100444.63;5054487;28;20045;-75
2022/06/08 00:33:33;;;;;;;8.68;3.90;;;;;;;25.32;59.45;100444.63;5052744;28;20052;-75
2022/06/08 00:36:01;;;;;;;4.68;3.67;;;;;;;25.33;59.45;100445.47;5053402;28;20071;-75
2022/06/08 00:38:28;;;;;;;4.20;3.80;;;;;;;25.33;59.41;100450.88;5054224;28;20060;-75
2022/06/08 00:41:35;;;;;;;6.22;3.80;;;;;;;25.34;59.41;100452.56;5054141;28;20048;-75
2022/06/08 00:44:12;;;;;;;7.32;4.10;;;;;;;25.34;59.36;100457.97;5054930;28;20048;-75
2022/06/08 00:46:40;;;;;;;6.18;4.18;;;;;;;25.34;59.31;100449.84;5054702;28;20388;-75
2022/06/08 00:49:21;;;;;;;5.70;4.20;;;;;;;25.35;59.33;100459.66;5052576;28;20412;-75
2022/06/08 00:51:49;;;;;;;5.57;3.60;;;;;;;25.34;59.16;100457.97;5054054;28;20041;-75
2022/06/08 00:54:32;;;;;;;6.28;4.30;;;;;;;25.33;59.14;100459.84;5052925;28;20087;-74
2022/06/08 00:57:08;;;;;;;5.90;4.15;;;;;;;25.34;59.04;100450.69;5054442;28;20044;-75
2022/06/08 00:59:39;;;;;;;6.85;4.15;;;;;;;25.35;59.11;100448.81;5052310;28;20059;-75
2022/06/08 01:02:07;;;;;;;5.40;3.80;;;;;;;25.35;59.09;100451.53;5054309;28;20052;-74
2022/06/08 01:04:34;;;;;;;4.57;4.10;;;;;;;25.34;58.93;100458.81;5053838;28;20056;-75
2022/06/08 01:07:04;;;;;;;4.75;4.18;;;;;;;25.34;58.84;100453.41;5053775;28;20048;-75
2022/06/08 01:09:36;;;;;;;10.02;4.50;;;;;;;25.35;58.81;100454.25;5054510;28;20048;-75
2022/06/08 01:12:12;;;;;;;5.55;4.53;;;;;;;25.34;58.75;100458.81;5052299;28;20048;-75
2022/06/08 01:14:44;;;;;;;5.70;4.20;;;;;;;25.34;58.81;100445.28;5052673;28;20059;-75
2022/06/08 01:17:15;;;;;;;4.55;4.10;;;;;;;25.35;58.67;100448.81;5051697;28;20416;-75
2022/06/08 01:19:47;;;;;;;5.55;4.40;;;;;;;25.34;58.55;100453.41;5051822;28;20071;-75
2022/06/08 01:22:19;;;;;;;4.60;4.13;;;;;;;25.34;58.67;100447.97;5052122;28;20055;-74
2022/06/08 01:24:52;;;;;;;5.95;4.32;;;;;;;25.35;58.57;100454.25;5052131;28;20057;-75
2022/06/08 01:27:43;;;;;;;7.72;4.90;;;;;;;25.35;58.47;100444.25;5052249;28;20053;-75
2022/06/08 01:30:17;;;;;;;5.57;4.05;;;;;;;25.35;58.59;100451.53;5053049;28;20056;-75
2022/06/08 01:33:32;;;;;;;6.75;4.15;;;;;;;25.35;58.78;100459.66;5053873;28;20378;-75
2022/06/08 01:36:14;;;;;;;6.35;4.22;;;;;;;25.35;58.43;100460.50;5013962;28;20057;-75
2022/06/08 01:38:46;;;;;;;6.20;4.35;;;;;;;25.35;58.37;100459.66;5031904;28;20052;-75
2022/06/08 01:41:30;;;;;;;5.85;3.92;;;;;;;25.35;58.37;100459.66;5032094;28;20057;-76
2022/06/08 01:44:34;;;;;;;8.15;4.57;;;;;;;25.35;58.24;100465.91;5031843;28;20520;-76
2022/06/08 01:47:17;;;;;;;6.30;4.38;;;;;;;25.35;58.05;100455.06;5014474;28;20056;-75
2022/06/08 01:50:20;;;;;;;8.65;4.70;;;;;;;25.34;58.00;100453.41;5031198;28;20061;-76
2022/06/08 01:53:06;;;;;;;6.10;3.83;;;;;;;25.34;57.88;100458.81;5014624;28;20056;-75
2022/06/08 01:55:53;;;;;;;6.15;4.43;;;;;;;25.34;57.81;100458.81;5014194;28;20468;-75
2022/06/08 01:58:51;;;;;;;8.23;5.07;;;;;;;25.35;57.77;100452.38;5014473;28;20053;-75
2022/06/08 02:01:27;;;;;;;6.90;4.40;;;;;;;25.34;58.13;100463.41;5011511;28;20497;-75
2022/06/08 02:04:14;;;;;;;7.25;5.00;;;;;;;25.35;57.85;100471.34;5014357;28;20512;-75
2022/06/08 02:06:53;;;;;;;5.55;4.00;;;;;;;25.35;57.79;100465.06;5014251;28;20573;-75
2022/06/08 02:09:40;;;;;;;6.88;4.50;;;;;;;25.34;57.78;100468.81;5014274;28;20076;-75
2022/06/08 02:12:11;;;;;;;7.18;4.47;;;;;;;25.34;57.72;100460.69;5024515;28;20049;-75
2022/06/08 02:15:02;;;;;;;6.20;4.25;;;;;;;25.34;57.50;100453.41;5051218;28;20056;-75
2022/06/08 02:17:41;;;;;;;6.43;4.45;;;;;;;25.35;57.86;100446.09;5035750;28;20488;-75
2022/06/08 02:20:26;;;;;;;6.18;4.00;;;;;;;25.35;57.78;100462.38;5051891;28;20072;-75
2022/06/08 02:23:02;;;;;;;6.57;4.00;;;;;;;25.35;57.67;100459.66;5051678;28;20045;-75
2022/06/08 02:25:40;;;;;;;6.10;4.00;;;;;;;25.35;57.71;100454.25;5035414;28;20063;-75
2022/06/08 02:28:08;;;;;;;7.53;4.03;;;;;;;25.35;57.70;100449.66;5054441;28;20044;-75
2022/06/08 02:30:44;;;;;;;12.70;4.90;;;;;;;25.35;57.58;100454.25;5055722;28;20052;-75
2022/06/08 02:36:15;;;;;;;7.85;4.30;;;;;;;25.35;57.56;100448.81;5055282;28;20056;-76
2022/06/08 02:39:12;;;;;;;9.32;4.43;;;;;;;25.34;57.49;100447.97;5055182;28;20063;-76
2022/06/08 02:41:44;;;;;;;7.38;3.85;;;;;;;25.34;57.41;100439.00;5038954;28;20052;-75
2022/06/08 02:44:25;;;;;;;11.73;4.18;;;;;;;25.33;57.50;100443.59;5038556;28;20052;-75
2022/06/08 02:47:04;;;;;;;8.75;4.78;;;;;;;25.33;57.30;100440.03;5055221;28;20060;-75
2022/06/08 02:49:36;;;;;;;6.57;4.65;;;;;;;25.32;57.21;100449.16;5055160;28;20048;-73
2022/06/08 02:52:29;;;;;;;7.85;5.15;;;;;;;25.30;56.95;100451.22;5055218;28;20511;-75
2022/06/08 02:54:59;;;;;;;7.43;5.05;;;;;;;25.28;57.05;100455.97;5054649;28;20570;-75
2022/06/08 02:57:30;;;;;;;10.23;4.32;;;;;;;25.28;57.05;100453.25;5055088;28;20060;-75
2022/06/08 03:00:05;;;;;;;7.28;4.50;;;;;;;25.26;57.05;100456.16;5055100;28;20103;-75
2022/06/08 03:02:41;;;;;;;9.25;5.20;;;;;;;25.26;57.08;100458.88;5055468;28;20045;-75
2022/06/08 03:05:19;;;;;;;8.98;5.13;;;;;;;25.25;56.96;100461.78;5055082;28;20053;-75
2022/06/08 03:07:58;;;;;;;8.18;4.97;;;;;;;25.25;56.73;100459.06;5054630;28;20408;-76
2022/06/08 03:10:30;;;;;;;9.38;4.50;;;;;;;25.23;57.05;100461.94;5054939;28;20064;-75
2022/06/08 03:13:02;;;;;;;6.57;5.05;;;;;;;25.21;56.72;100464.00;5056635;28;20045;-75
2022/06/08 03:15:57;;;;;;;6.95;5.05;;;;;;;25.20;56.77;100456.03;5054687;28;20052;-75
2022/06/08 03:19:17;;;;;;;8.32;5.30;;;;;;;25.20;56.87;100461.44;5040573;28;20052;-75
2022/06/08 03:22:16;;;;;;;13.05;5.43;;;;;;;25.20;56.94;100473.16;5054532;28;20420;-75
2022/06/08 03:25:46;;;;;;;8.45;5.30;;;;;;;25.17;56.85;100467.25;5054699;28;20067;-76
2022/06/08 03:29:33;;;;;;;8.65;5.25;;;;;;;25.13;56.63;100473.00;5042442;28;20072;-75
2022/06/08 03:33:47;;;;;;;;;;;;;;;;;;;;;
2022/06/08 03:36:54;;;;;;;7.47;4.30;;;;;;;25.13;56.42;100489.28;5053862;28;20053;-75
2022/06/08 03:39:53;;;;;;;8.73;5.38;;;;;;;25.11;56.42;100493.16;5038616;28;20048;-75
2022/06/08 03:43:42;;;;;;;8.85;5.07;;;;;;;25.10;56.28;100486.91;5056446;28;20147;-75
2022/06/08 03:47:45;;;;;;;7.78;4.85;;;;;;;25.08;56.28;100485.38;5058698;28;20060;-75
2022/06/08 03:55:22;;;;;;;11.48;4.47;;;;;;;25.03;56.16;100499.44;5014040;28;20445;-76
2022/06/08 04:02:57;;;;;;;;;;;;;;;25.01;56.50;100504.19;4890651;29;20060;-75
2022/06/08 04:06:24;;;;;;;6.47;4.50;;;;;;;25.01;56.36;100503.38;4879410;29;19928;-75
2022/06/08 04:10:00;;;;;;;7.65;4.07;;;;;;;25.03;56.26;100501.31;4858153;29;20077;-77
2022/06/08 04:12:46;;;;;;;5.93;4.35;;;;;;;25.02;56.19;100500.47;4863742;29;20056;-76
2022/06/08 04:19:28;;;;;;;5.28;4.10;;;;;;;25.01;55.82;100501.50;4860556;29;20064;-75
2022/06/08 04:22:06;;;;;;;7.75;4.25;;;;;;;25.01;55.96;100511.50;4903819;29;20498;-75
2022/06/08 04:25:35;;;;;;;5.25;3.75;;;;;;;25.02;56.21;100519.41;4962288;28;20051;-75
2022/06/08 04:29:02;;;;;;;6.25;3.17;;;;;;;25.03;56.04;100520.25;4941087;28;20044;-77
2022/06/08 04:32:19;;;;;;;4.85;3.50;;;;;;;25.00;56.10;100512.53;4960779;28;20419;-77
2022/06/08 04:35:21;;;;;;;7.97;4.25;;;;;;;24.99;55.41;100508.09;4970820;28;20058;-77
2022/06/08 04:38:16;;;;;;;7.72;3.58;;;;;;;24.98;55.85;100511.84;4939036;28;20062;-75
2022/06/08 04:40:44;;;;;;;8.90;4.35;;;;;;;25.00;55.76;100515.22;4954763;28;20055;-75
2022/06/08 04:43:13;;;;;;;5.72;3.72;;;;;;;25.00;55.82;100512.53;4954311;28;20526;-74
2022/06/08 04:45:42;;;;;;;8.45;3.80;;;;;;;25.01;55.94;100509.63;4954427;28;20058;-74
2022/06/08 04:48:12;;;;;;;10.05;4.43;;;;;;;25.00;55.66;100507.94;4953971;28;20086;-75
2022/06/08 04:50:40;;;;;;;6.57;4.05;;;;;;;25.00;55.96;100509.81;4953365;28;20067;-75
2022/06/08 04:53:09;;;;;;;6.97;4.03;;;;;;;24.98;55.96;100511.84;5039543;28;20393;-75
2022/06/08 04:55:39;;;;;;;7.20;4.60;;;;;;;24.96;55.82;100512.03;5052913;28;20057;-75
2022/06/08 04:58:07;;;;;;;7.93;3.88;;;;;;;24.97;56.16;100518.28;5052759;28;20052;-74
2022/06/08 05:00:36;;;;;;;8.02;3.70;;;;;;;24.97;56.49;100521.81;5054130;28;20048;-74
2022/06/08 05:03:07;;;;;;;14.55;3.63;;;;;;;24.97;56.39;100521.81;5052695;28;20400;-74
2022/06/08 05:05:39;;;;;;;5.90;3.78;;;;;;;24.98;56.65;100519.97;5052705;28;20052;-75
2022/06/08 05:08:22;;;;;;;5.77;3.67;;;;;;;24.98;56.54;100523.50;5053117;28;20063;-75
2022/06/08 05:10:52;;;;;;;10.10;3.90;;;;;;;24.98;56.43;100523.50;5052283;28;20068;-75
2022/06/08 05:13:23;;;;;;;6.65;3.60;;;;;;;24.97;56.45;100527.25;5052216;28;20096;-75
2022/06/08 05:15:59;;;;;;;11.05;3.90;;;;;;;24.97;56.45;100527.25;5052240;28;20056;-75
2022/06/08 05:18:27;;;;;;;6.85;3.13;;;;;;;24.97;56.64;100524.53;5052124;28;20048;-75
2022/06/08 05:20:58;;;;;;;7.75;3.95;;;;;;;24.98;56.46;100533.50;5036476;28;20057;-75
2022/06/08 05:23:31;;;;;;;7.45;3.30;;;;;;;24.97;56.52;100521.81;5052405;28;20053;-74
2022/06/08 05:26:00;;;;;;;6.10;3.75;;;;;;;24.98;56.32;100537.03;5052999;28;20049;-74
2022/06/08 05:28:28;;;;;;;5.32;3.40;;;;;;;24.99;56.62;100532.47;5052066;28;20056;-74
2022/06/08 05:30:59;;;;;;;5.95;3.45;;;;;;;24.98;56.57;100530.78;5035902;28;20055;-74
2022/06/08 05:33:32;;;;;;;;;;;;;;;24.98;56.65;100533.50;5052526;28;20056;-74
2022/06/08 05:36:06;;;;;;;5.50;3.45;;;;;;;24.95;56.83;100534.69;5051899;28;20390;-74
2022/06/08 05:38:34;;;;;;;7.85;4.03;;;;;;;24.96;56.81;100540.97;5052058;28;20076;-73
2022/06/08 05:41:03;;;;;;;7.72;4.32;;;;;;;24.96;57.13;100539.09;5052010;28;20067;-74
2022/06/08 05:43:34;;;;;;;7.53;3.70;;;;;;;24.97;57.15;100537.22;5052156;28;20052;-74
2022/06/08 05:46:01;;;;;;;7.00;4.00;;;;;;;24.96;56.98;100536.41;5051752;28;20055;-74
2022/06/08 05:48:29;;;;;;;10.55;3.78;;;;;;;24.97;57.36;100539.94;5053640;28;20041;-74
2022/06/08 05:51:01;;;;;;;7.53;3.72;;;;;;;24.97;57.46;100546.19;5051584;28;20393;-74
2022/06/08 05:53:29;;;;;;;7.97;4.00;;;;;;;24.97;57.46;100548.91;5051692;28;20403;-74
2022/06/08 05:55:57;;;;;;;7.80;3.92;;;;;;;24.98;57.64;100556.00;5051580;28;20508;-74
2022/06/08 05:58:26;;;;;;;8.00;4.00;;;;;;;24.99;57.64;100556.84;5051896;28;20056;-74
2022/06/08 06:00:56;;;;;;;13.52;4.05;;;;;;;24.98;57.59;100561.41;5051343;28;20060;-74
2022/06/08 06:03:24;;;;;;;9.15;4.05;;;;;;;24.99;57.89;100570.38;5051914;28;20056;-74
2022/06/08 06:05:51;;;;;;;9.98;4.88;;;;;;;24.99;57.91;100570.38;5052226;28;20045;-74
2022/06/08 06:08:20;;;;;;;6.07;3.92;;;;;;;25.00;57.94;100569.38;5051438;28;20044;-74
2022/06/08 06:10:51;;;;;;;5.35;3.88;;;;;;;25.00;57.99;100572.09;5035571;28;20048;-74
2022/06/08 06:13:32;;;;;;;6.88;4.05;;;;;;;25.01;58.00;100560.25;5052104;28;20131;-77
2022/06/08 06:16:01;;;;;;;9.00;4.97;;;;;;;25.02;57.85;100572.75;5051545;28;20060;-74
2022/06/08 06:18:30;;;;;;;7.03;4.85;;;;;;;25.02;58.15;100562.75;5052070;28;20064;-75
2022/06/08 06:21:17;;;;;;;7.45;4.10;;;;;;;25.03;58.11;100571.72;5051651;28;20412;-75
2022/06/08 06:23:54;;;;;;;10.93;4.90;;;;;;;25.04;58.16;100563.44;5052362;28;20045;-75
2022/06/08 06:26:39;;;;;;;5.97;4.45;;;;;;;25.03;58.37;100559.03;5060141;28;20056;-75
2022/06/08 06:29:30;;;;;;;8.82;5.85;;;;;;;25.03;58.41;100555.47;5052321;28;20053;-75
2022/06/08 06:32:01;;;;;;;6.88;5.47;;;;;;;25.01;58.48;100552.94;5052847;28;20048;-75
2022/06/08 06:34:33;;;;;;;7.40;5.07;;;;;;;25.02;58.29;100553.78;5051274;28;20049;-75
2022/06/08 06:37:01;;;;;;;6.82;5.00;;;;;;;25.00;58.07;100548.56;5051638;28;20052;-75
2022/06/08 06:39:29;;;;;;;6.55;5.13;;;;;;;25.00;58.05;100551.28;5051168;28;20053;-75
2022/06/08 06:42:02;;;;;;;10.52;5.55;;;;;;;25.00;58.40;100539.59;5051465;28;20499;-75
2022/06/08 06:44:36;;;;;;;9.85;4.95;;;;;;;25.01;58.46;100549.41;5036772;28;20045;-73
2022/06/08 06:47:11;;;;;;;13.68;6.75;;;;;;;25.01;59.38;100550.25;5050972;28;20404;-74
2022/06/08 06:49:42;;;;;;;9.57;6.78;;;;;;;24.99;59.58;100541.44;5051151;28;20440;-74
2022/06/08 06:52:13;;;;;;;8.43;6.38;;;;;;;24.97;59.26;100540.78;5050790;28;20067;-74
2022/06/08 06:54:41;;;;;;;6.60;5.85;;;;;;;24.95;59.37;100541.97;5051554;28;20048;-74
2022/06/08 06:57:09;;;;;;;9.38;5.70;;;;;;;24.91;59.57;100547.75;5051421;28;20512;-74
2022/06/08 06:59:38;;;;;;;6.93;5.75;;;;;;;24.89;59.67;100546.22;5051077;28;20055;-74
2022/06/08 07:02:18;;;;;;;7.63;5.13;;;;;;;24.88;59.89;100539.97;5052322;28;20048;-74
2022/06/08 07:04:47;;;;;;;6.68;5.30;;;;;;;24.88;59.52;100553.53;5051287;28;20060;-76
2022/06/08 07:07:14;;;;;;;10.82;6.45;;;;;;;24.89;59.21;100557.06;5063148;28;20044;-74
2022/06/08 07:09:44;;;;;;;8.82;6.13;;;;;;;24.88;59.19;100550.81;5104021;28;20061;-73
2022/06/08 07:12:12;;;;;;;6.72;5.53;;;;;;;24.88;58.50;100558.09;5070390;28;20052;-73
2022/06/08 07:14:47;;;;;;;11.52;5.30;;;;;;;24.87;58.97;100559.97;5089376;28;20510;-73
2022/06/08 07:17:17;;;;;;;7.25;5.13;;;;;;;24.88;57.66;100544.56;5074681;28;20057;-73
2022/06/08 07:19:45;;;;;;;8.73;5.40;;;;;;;24.88;57.04;100555.38;5074681;28;20059;-73
2022/06/08 07:22:13;;;;;;;6.30;4.60;;;;;;;24.87;57.32;100542.84;5091403;28;20056;-73
2022/06/08 07:24:40;;;;;;;6.65;4.53;;;;;;;24.86;57.66;100535.75;5076322;28;20040;-73
2022/06/08 07:27:07;;;;;;;6.22;3.85;;;;;;;24.86;56.68;100536.59;5074564;28;20052;-74
2022/06/08 07:29:35;;;;;;;8.10;4.13;;;;;;;24.83;56.44;100536.97;5075507;28;20045;-74
2022/06/08 07:32:02;;;;;;;5.40;3.83;;;;;;;24.83;56.93;100542.38;5075565;28;20515;-74
2022/06/08 07:34:30;;;;;;;5.10;3.97;;;;;;;24.82;57.39;100532.53;5075571;28;20044;-74
2022/06/08 07:37:00;;;;;;;6.05;4.13;;;;;;;24.81;57.29;100536.28;5075527;28;20048;-74
2022/06/08 07:39:27;;;;;;;7.40;3.75;;;;;;;24.81;57.33;100535.44;5074492;28;20044;-75
2022/06/08 07:41:55;;;;;;;7.07;4.57;;;;;;;24.82;57.85;100529.00;5073621;28;20452;-75
2022/06/08 07:44:22;;;;;;;7.60;4.50;;;;;;;24.82;57.37;100529.00;5074114;28;20056;-74
2022/06/08 07:46:50;;;;;;;11.85;4.57;;;;;;;24.81;56.99;100520.03;5075693;28;20368;-75
2022/06/08 07:52:13;;;;;;;9.90;4.75;;;;;;;24.86;57.56;100524.91;5074801;28;20055;-75
2022/06/08 07:54:42;;;;;;;6.22;4.28;;;;;;;24.88;57.05;100523.72;5073999;28;20052;-75
2022/06/08 07:57:16;;;;;;;6.85;3.67;;;;;;;24.90;57.46;100524.38;5074110;28;20051;-75
2022/06/08 07:59:43;;;;;;;6.22;3.95;;;;;;;24.90;57.54;100521.69;5075312;28;20522;-74
2022/06/08 08:02:11;;;;;;;5.65;3.92;;;;;;;24.92;56.81;100518.81;5075338;28;20048;-74
2022/06/08 08:04:38;;;;;;;10.00;4.97;;;;;;;24.93;57.33;100517.78;5074771;28;20053;-74
2022/06/08 08:07:09;;;;;;;5.47;3.20;;;;;;;24.94;57.42;100515.91;5073323;28;20492;-74
2022/06/08 08:09:37;;;;;;;9.23;4.43;;;;;;;24.96;57.89;100509.31;5074583;28;20053;-74
2022/06/08 08:12:05;;;;;;;6.78;6.07;;;;;;;24.96;58.61;100503.91;5073489;28;20545;-74
2022/06/08 08:14:34;;;;;;;6.75;4.88;;;;;;;24.97;58.40;100505.56;5074595;28;20044;-74
2022/06/08 08:17:03;;;;;;;7.50;5.45;;;;;;;24.97;58.76;100502.88;5073748;28;20040;-76
2022/06/08 08:19:32;;;;;;;7.30;5.35;;;;;;;24.99;58.84;100508.09;5074612;28;20048;-74
2022/06/08 08:22:00;;;;;;;7.57;5.35;;;;;;;25.00;58.98;100499.81;5072941;28;20049;-75
2022/06/08 08:24:28;;;;;;;7.80;6.97;;;;;;;25.02;58.97;100496.91;5074124;28;20048;-74
2022/06/08 08:26:56;;;;;;;8.52;7.10;;;;;;;25.00;58.84;100488.97;5074412;28;20044;-74
2022/06/08 08:29:23;;;;;;;8.70;7.80;;;;;;;25.01;59.12;100490.66;5074551;28;20503;-74
2022/06/08 08:31:51;;;;;;;11.25;7.53;;;;;;;25.01;59.86;100485.25;5074303;28;20048;-75
2022/06/08 08:34:18;;;;;;;10.18;6.82;;;;;;;24.99;59.54;100484.56;5074102;28;20044;-75
2022/06/08 08:36:46;;;;;;;7.47;6.78;;;;;;;25.01;59.75;100484.41;5074192;28;20400;-74
2022/06/08 08:39:15;;;;;;;9.45;7.25;;;;;;;25.00;59.38;100483.56;5074446;28;20067;-75
2022/06/08 08:44:38;;;;;;;7.40;6.32;;;;;;;25.03;59.23;100483.19;5074024;28;20044;-75
2022/06/08 08:47:35;;;;;;;8.88;5.90;;;;;;;25.05;59.26;100481.16;5073932;28;20055;-74
2022/06/08 08:50:09;;;;;;;6.95;6.18;;;;;;;25.07;59.32;100483.69;5071346;28;20099;-75
2022/06/08 08:52:51;;;;;;;9.48;7.43;;;;;;;25.09;59.04;100478.97;5072245;28;20159;-75
2022/06/08 08:55:41;;;;;;;12.90;7.23;;;;;;;25.12;58.69;100489.47;5072121;28;20068;-75
2022/06/08 08:58:27;;;;;;;9.90;7.38;;;;;;;25.12;58.41;100478.63;5071649;28;20048;-75
2022/06/08 09:00:57;;;;;;;8.38;6.10;;;;;;;25.13;58.46;100478.44;5072020;28;20061;-74
2022/06/08 09:03:32;;;;;;;9.15;6.07;;;;;;;25.16;58.32;100477.25;5071793;28;20067;-75
2022/06/08 09:06:13;;;;;;;7.05;5.68;;;;;;;25.16;58.18;100477.25;5071490;28;20048;-75
2022/06/08 09:08:45;;;;;;;8.18;5.80;;;;;;;25.18;58.55;100482.47;5054839;28;20465;-75
2022/06/08 09:11:19;;;;;;;8.73;7.00;;;;;;;25.16;58.77;100477.25;5054613;28;20523;-75
2022/06/08 09:13:55;;;;;;;8.82;6.97;;;;;;;25.13;58.53;100477.59;5071450;28;20155;-75
2022/06/08 09:16:47;;;;;;;8.48;6.18;;;;;;;25.13;58.70;100469.47;5054417;28;20052;-75
2022/06/08 09:19:36;;;;;;;7.43;5.03;;;;;;;25.14;58.63;100474.69;5055389;28;20447;-75
2022/06/08 09:22:03;;;;;;;7.00;5.10;;;;;;;25.15;58.85;100476.38;5071341;28;20060;-74
2022/06/08 09:24:36;;;;;;;7.00;4.45;;;;;;;25.17;58.74;100478.09;5071127;28;20163;-75
2022/06/08 09:27:35;;;;;;;8.30;4.60;;;;;;;25.18;58.71;100472.47;5059802;28;20388;-75
2022/06/08 09:30:27;;;;;;;4.47;4.05;;;;;;;25.19;58.63;100476.03;5073839;28;20045;-75
2022/06/08 09:33:22;;;;;;;5.90;4.22;;;;;;;25.20;58.63;100470.44;5073533;28;20069;-75
2022/06/08 09:36:20;;;;;;;6.68;4.65;;;;;;;25.20;58.69;100470.44;5073127;28;20045;-75
2022/06/08 09:38:47;;;;;;;5.40;4.13;;;;;;;25.21;58.82;100465.88;5068301;28;20053;-75
2022/06/08 09:41:27;;;;;;;5.70;3.67;;;;;;;25.22;58.88;100465.69;5073260;28;20047;-75
2022/06/08 09:54:13;;;;;;;4.50;3.78;;;;;;;25.25;58.73;100453.66;5052927;28;20048;-75
2022/06/08 09:57:15;;;;;;;4.70;3.63;;;;;;;25.25;58.88;100454.50;5053197;28;20048;-75
2022/06/08 10:00:08;;;;;;;4.80;3.97;;;;;;;25.26;58.79;100455.31;5051343;28;20080;-75
2022/06/08 10:03:00;;;;;;;7.05;4.95;;;;;;;25.26;58.74;100453.47;5053126;28;20052;-75
2022/06/08 10:05:39;;;;;;;4.22;3.42;;;;;;;25.27;58.47;100448.88;5051834;28;20041;-75
2022/06/08 10:08:42;;;;;;;4.18;3.78;;;;;;;25.28;58.63;100455.97;5053088;28;20049;-75
2022/06/08 10:11:34;;;;;;;3.67;3.30;;;;;;;25.28;58.56;100437.88;5053384;28;20049;-75
2022/06/08 10:14:35;;;;;;;5.53;3.72;;;;;;;25.28;58.76;100439.72;5051602;28;20377;-75
2022/06/08 10:17:36;;;;;;;5.65;4.00;;;;;;;25.30;58.67;100435.81;5052566;28;20052;-75
2022/06/08 10:20:14;;;;;;;4.28;3.40;;;;;;;25.30;58.64;100434.97;5050529;28;20065;-75
2022/06/08 10:22:45;;;;;;;4.95;3.63;;;;;;;25.30;58.72;100429.56;5051220;28;20396;-75
2022/06/08 10:25:19;;;;;;;4.93;3.65;;;;;;;25.31;58.62;100423.94;5051043;28;20057;-74
2022/06/08 10:27:55;;;;;;;5.97;3.97;;;;;;;25.30;58.63;100421.44;5051192;28;20047;-74
2022/06/08 10:30:57;;;;;;;4.05;3.65;;;;;;;25.32;58.62;100419.38;5051174;28;20519;-74
2022/06/08 10:33:34;;;;;;;4.15;3.75;;;;;;;25.31;58.66;100417.69;5049874;28;20139;-74
2022/06/08 10:36:03;;;;;;;4.50;3.60;;;;;;;25.32;58.58;100419.38;5049973;28;20060;-76
2022/06/08 10:38:34;;;;;;;5.30;3.90;;;;;;;25.32;58.61;100412.09;5050670;28;20496;-74
2022/06/08 10:44:28;;;;;;;4.25;3.30;;;;;;;25.33;58.67;100393.97;5050878;28;20061;-74
2022/06/08 10:47:08;;;;;;;4.22;3.55;;;;;;;25.34;58.59;100395.66;5050275;28;20061;-74
2022/06/08 10:49:35;;;;;;;4.18;3.20;;;;;;;25.34;58.67;100392.94;5035086;28;20057;-74
2022/06/08 10:52:17;;;;;;;4.95;3.22;;;;;;;25.33;58.73;100386.69;5054181;28;20060;-74
2022/06/08 10:54:55;;;;;;;4.50;3.38;;;;;;;25.35;58.54;100394.63;5054462;28;20056;-74
2022/06/08 10:57:31;;;;;;;4.35;3.35;;;;;;;25.35;58.65;100391.91;5064646;28;20060;-74
2022/06/08 11:00:20;;;;;;;3.92;3.47;;;;;;;25.34;58.60;100388.38;5055897;28;20045;-73
2022/06/08 11:03:02;;;;;;;4.35;3.13;;;;;;;25.35;58.46;100392.75;5056823;28;20041;-74
2022/06/08 11:05:32;;;;;;;4.38;3.75;;;;;;;25.35;58.33;100391.91;5056015;28;20534;-74
2022/06/08 11:08:04;;;;;;;5.90;3.58;;;;;;;25.35;58.65;100387.34;5055129;28;20078;-74
2022/06/08 11:10:44;;;;;;;3.78;3.47;;;;;;;25.36;58.47;100389.03;5056478;28;20049;-74
2022/06/08 11:13:19;;;;;;;4.18;3.78;;;;;;;25.36;58.31;100391.75;5056948;28;20048;-74
2022/06/08 11:15:53;;;;;;;3.60;3.15;;;;;;;25.37;58.48;100387.16;5055948;28;20041;-73
2022/06/08 11:18:43;;;;;;;4.43;3.28;;;;;;;25.37;58.41;100370.91;5054160;28;20045;-74
2022/06/08 11:21:39;;;;;;;3.58;3.20;;;;;;;25.36;58.35;100363.78;5061833;28;20037;-73
2022/06/08 11:24:20;;;;;;;3.72;3.42;;;;;;;25.37;58.61;100360.06;5075549;28;20048;-76
2022/06/08 11:26:53;;;;;;;3.53;3.20;;;;;;;25.38;58.46;100365.28;5074027;28;20040;-76
2022/06/08 11:29:25;;;;;;;3.83;3.30;;;;;;;25.38;58.58;100365.28;5075187;28;20052;-74
2022/06/08 11:31:56;;;;;;;3.83;3.17;;;;;;;25.38;58.56;100359.88;5074196;28;20530;-74
2022/06/08 11:35:02;;;;;;;3.47;3.17;;;;;;;25.39;58.59;100358.00;5074072;28;20500;-74
2022/06/08 11:38:26;;;;;;;3.95;3.28;;;;;;;25.40;58.32;100356.97;5075300;28;20040;-74
2022/06/08 11:41:20;;;;;;;3.42;3.13;;;;;;;25.41;58.47;100347.84;5072572;28;20048;-74
2022/06/08 11:43:55;;;;;;;4.47;3.22;;;;;;;25.41;58.35;100350.56;5013045;28;20073;-74
2022/06/08 11:46:34;;;;;;;4.13;3.15;;;;;;;25.42;58.31;100345.97;5013062;28;20054;-74
2022/06/08 11:49:07;;;;;;;3.58;3.28;;;;;;;25.41;58.20;100342.41;5012270;28;20461;-73
2022/06/08 11:51:38;;;;;;;4.63;3.15;;;;;;;25.42;58.27;100341.38;5012661;28;20386;-74
2022/06/08 11:54:18;;;;;;;3.42;3.13;;;;;;;25.43;58.27;100343.06;5015591;28;20097;-74
2022/06/08 11:57:12;;;;;;;4.28;3.38;;;;;;;25.43;58.23;100326.81;5014972;28;20060;-74
2022/06/08 11:59:44;;;;;;;4.75;3.35;;;;;;;25.43;58.39;100317.84;4995893;28;20465;-76
2022/06/08 12:02:24;;;;;;;3.85;3.15;;;;;;;25.44;58.22;100333.06;5012961;28;20061;-78
2022/06/08 12:04:56;;;;;;;3.13;2.67;;;;;;;25.43;58.24;100315.97;5012484;28;20138;-74
2022/06/08 12:07:31;;;;;;;4.25;3.30;;;;;;;25.44;58.14;100317.63;5014749;28;20065;-74
2022/06/08 12:09:59;;;;;;;3.80;3.10;;;;;;;25.45;58.21;100316.63;5018796;28;20253;-73
2022/06/08 12:12:28;;;;;;;2.97;2.60;;;;;;;25.46;58.23;100312.06;5011829;28;20057;-74
2022/06/08 12:14:55;;;;;;;2.95;2.67;;;;;;;25.45;58.26;100308.50;4995497;28;20501;-74
2022/06/08 12:17:35;;;;;;;3.38;3.00;;;;;;;25.45;58.23;100308.50;4993306;28;20418;-74
2022/06/08 12:20:35;;;;;;;3.97;2.90;;;;;;;25.45;58.27;100300.38;5015200;28;20089;-74
2022/06/08 12:23:03;;;;;;;4.05;3.17;;;;;;;25.46;58.18;100299.34;5073481;28;20480;-74
2022/06/08 12:25:32;;;;;;;3.35;2.80;;;;;;;25.47;58.29;100306.44;5074516;28;20404;-74
2022/06/08 12:28:11;;;;;;;3.47;3.17;;;;;;;25.47;58.06;100300.19;5073938;28;20041;-74
2022/06/08 12:30:44;;;;;;;3.72;3.17;;;;;;;25.48;57.99;100299.16;5073427;28;20088;-74
2022/06/08 12:33:16;;;;;;;3.15;2.65;;;;;;;25.48;57.98;100302.72;5073537;28;20052;-74
2022/06/08 12:36:18;;;;;;;5.35;3.00;;;;;;;25.49;58.19;100301.69;5073556;28;20357;-74
2022/06/08 12:39:12;;;;;;;3.63;2.97;;;;;;;25.49;57.92;100292.72;5071624;28;20155;-74
2022/06/08 12:41:48;;;;;;;4.32;3.03;;;;;;;25.49;58.04;100290.00;5071248;28;20053;-74
2022/06/08 12:44:20;;;;;;;4.43;3.05;;;;;;;25.49;57.93;100287.31;5071496;28;20059;-74
2022/06/08 12:46:57;;;;;;;4.47;2.78;;;;;;;25.50;57.96;100286.28;5071774;28;20044;-75
2022/06/08 12:49:38;;;;;;;4.63;3.10;;;;;;;25.50;57.96;100288.97;5071429;28;20151;-75
2022/06/08 12:52:46;;;;;;;3.85;2.70;;;;;;;25.50;57.96;100281.69;5071752;28;20059;-75
2022/06/08 12:55:20;;;;;;;3.42;2.72;;;;;;;25.50;57.61;100278.97;5068967;28;20064;-76
2022/06/08 12:57:48;;;;;;;4.10;2.80;;;;;;;25.51;57.96;100274.38;5054626;28;20162;-75